sensor_id;sensor_type;location;lat;lon;timestamp;P1;durP1;ratioP1;P2;durP2;ratioP2
74170;SDS011;62526;50.948;6.590;2023-12-14T00:01:29;48.83;;;21.97;;
74170;SDS011;62526;50.948;6.590;2023-12-14T00:03:56;44.50;;;19.73;;
74170;SDS011;62526;50.948;6.590;2023-12-14T00:06:22;40.50;;;20.37;;
74170;SDS011;62526;50.948;6.590;2023-12-14T00:08:49;43.77;;;20.97;;
74170;SDS011;62526;50.948;6.590;2023-12-14T00:11:16;47.30;;;21.63;;
74170;SDS011;62526;50.948;6.590;2023-12-14T00:13:42;38.67;;;20.27;;
74170;SDS011;62526;50.948;6.590;2023-12-14T00:16:09;44.50;;;21.60;;
74170;SDS011;62526;50.948;6.590;2023-12-14T00:18:35;51.37;;;24.00;;
74170;SDS011;62526;50.948;6.590;2023-12-14T00:21:02;44.37;;;21.43;;
74170;SDS011;62526;50.948;6.590;2023-12-14T00:23:29;42.00;;;20.73;;
74170;SDS011;62526;50.948;6.590;2023-12-14T00:25:56;42.27;;;20.50;;
74170;SDS011;62526;50.948;6.590;2023-12-14T00:28:22;44.87;;;22.27;;
74170;SDS011;62526;50.948;6.590;2023-12-14T00:30:49;43.73;;;19.60;;
74170;SDS011;62526;50.948;6.590;2023-12-14T00:33:15;50.90;;;21.43;;
74170;SDS011;62526;50.948;6.590;2023-12-14T00:35:42;47.67;;;20.80;;
74170;SDS011;62526;50.948;6.590;2023-12-14T00:38:09;51.83;;;21.13;;
74170;SDS011;62526;50.948;6.590;2023-12-14T00:40:35;49.17;;;21.37;;
74170;SDS011;62526;50.948;6.590;2023-12-14T00:43:02;52.90;;;21.97;;
74170;SDS011;62526;50.948;6.590;2023-12-14T00:45:28;54.40;;;21.23;;
74170;SDS011;62526;50.948;6.590;2023-12-14T00:47:55;48.10;;;20.27;;
74170;SDS011;62526;50.948;6.590;2023-12-14T00:50:22;50.37;;;20.73;;
74170;SDS011;62526;50.948;6.590;2023-12-14T00:52:48;55.97;;;22.07;;
74170;SDS011;62526;50.948;6.590;2023-12-14T00:55:15;54.77;;;23.50;;
74170;SDS011;62526;50.948;6.590;2023-12-14T00:57:42;54.87;;;22.93;;
74170;SDS011;62526;50.948;6.590;2023-12-14T01:00:09;53.33;;;22.10;;
74170;SDS011;62526;50.948;6.590;2023-12-14T01:02:36;55.67;;;23.90;;
74170;SDS011;62526;50.948;6.590;2023-12-14T01:05:02;63.73;;;24.27;;
74170;SDS011;62526;50.948;6.590;2023-12-14T01:07:29;50.47;;;21.67;;
74170;SDS011;62526;50.948;6.590;2023-12-14T01:09:56;61.17;;;24.47;;
74170;SDS011;62526;50.948;6.590;2023-12-14T01:12:23;53.87;;;23.07;;
74170;SDS011;62526;50.948;6.590;2023-12-14T01:14:50;60.53;;;25.67;;
74170;SDS011;62526;50.948;6.590;2023-12-14T01:17:16;58.60;;;26.30;;
74170;SDS011;62526;50.948;6.590;2023-12-14T01:19:43;54.87;;;24.70;;
74170;SDS011;62526;50.948;6.590;2023-12-14T01:22:10;55.73;;;23.43;;
74170;SDS011;62526;50.948;6.590;2023-12-14T01:24:36;59.07;;;24.33;;
74170;SDS011;62526;50.948;6.590;2023-12-14T01:27:03;58.60;;;24.10;;
74170;SDS011;62526;50.948;6.590;2023-12-14T01:29:29;61.37;;;25.57;;
74170;SDS011;62526;50.948;6.590;2023-12-14T01:31:56;55.23;;;24.53;;
74170;SDS011;62526;50.948;6.590;2023-12-14T01:34:23;53.87;;;25.63;;
74170;SDS011;62526;50.948;6.590;2023-12-14T01:36:49;54.43;;;23.17;;
74170;SDS011;62526;50.948;6.590;2023-12-14T01:39:16;52.73;;;23.37;;
74170;SDS011;62526;50.948;6.590;2023-12-14T01:41:42;51.70;;;23.73;;
74170;SDS011;62526;50.948;6.590;2023-12-14T01:44:09;54.20;;;23.17;;
74170;SDS011;62526;50.948;6.590;2023-12-14T01:46:36;46.87;;;20.90;;
74170;SDS011;62526;50.948;6.590;2023-12-14T01:49:02;46.97;;;20.83;;
74170;SDS011;62526;50.948;6.590;2023-12-14T01:51:29;46.60;;;21.63;;
74170;SDS011;62526;50.948;6.590;2023-12-14T01:56:38;48.93;;;21.33;;
74170;SDS011;62526;50.948;6.590;2023-12-14T01:59:05;46.93;;;21.33;;
74170;SDS011;62526;50.948;6.590;2023-12-14T02:01:40;38.60;;;18.50;;
74170;SDS011;62526;50.948;6.590;2023-12-14T02:04:08;41.77;;;18.00;;
74170;SDS011;62526;50.948;6.590;2023-12-14T02:06:35;37.73;;;17.07;;
74170;SDS011;62526;50.948;6.590;2023-12-14T02:09:02;40.93;;;17.80;;
74170;SDS011;62526;50.948;6.590;2023-12-14T02:11:29;39.60;;;17.03;;
74170;SDS011;62526;50.948;6.590;2023-12-14T02:13:55;39.27;;;17.67;;
74170;SDS011;62526;50.948;6.590;2023-12-14T02:16:22;37.93;;;16.97;;
74170;SDS011;62526;50.948;6.590;2023-12-14T02:18:49;42.17;;;17.93;;
74170;SDS011;62526;50.948;6.590;2023-12-14T02:21:17;34.57;;;15.83;;
74170;SDS011;62526;50.948;6.590;2023-12-14T02:23:44;35.30;;;15.07;;
74170;SDS011;62526;50.948;6.590;2023-12-14T02:26:10;37.13;;;15.97;;
74170;SDS011;62526;50.948;6.590;2023-12-14T02:28:37;34.80;;;15.60;;
74170;SDS011;62526;50.948;6.590;2023-12-14T02:31:04;33.37;;;15.23;;
74170;SDS011;62526;50.948;6.590;2023-12-14T02:33:30;32.70;;;13.97;;
74170;SDS011;62526;50.948;6.590;2023-12-14T02:35:57;27.67;;;13.80;;
74170;SDS011;62526;50.948;6.590;2023-12-14T02:38:24;28.23;;;13.90;;
74170;SDS011;62526;50.948;6.590;2023-12-14T02:40:50;29.37;;;12.50;;
74170;SDS011;62526;50.948;6.590;2023-12-14T02:43:17;24.80;;;12.17;;
74170;SDS011;62526;50.948;6.590;2023-12-14T02:45:44;26.70;;;12.27;;
74170;SDS011;62526;50.948;6.590;2023-12-14T02:48:10;26.33;;;10.77;;
74170;SDS011;62526;50.948;6.590;2023-12-14T02:50:37;27.13;;;11.80;;
74170;SDS011;62526;50.948;6.590;2023-12-14T02:53:04;30.10;;;12.27;;
74170;SDS011;62526;50.948;6.590;2023-12-14T02:55:30;26.97;;;12.37;;
74170;SDS011;62526;50.948;6.590;2023-12-14T02:57:57;29.37;;;13.03;;
74170;SDS011;62526;50.948;6.590;2023-12-14T03:00:24;30.60;;;14.10;;
74170;SDS011;62526;50.948;6.590;2023-12-14T03:02:50;39.77;;;14.10;;
74170;SDS011;62526;50.948;6.590;2023-12-14T03:05:17;33.10;;;14.50;;
74170;SDS011;62526;50.948;6.590;2023-12-14T03:07:44;22.97;;;12.10;;
74170;SDS011;62526;50.948;6.590;2023-12-14T03:10:10;27.63;;;12.60;;
74170;SDS011;62526;50.948;6.590;2023-12-14T03:12:37;29.20;;;13.93;;
74170;SDS011;62526;50.948;6.590;2023-12-14T03:15:04;30.63;;;14.93;;
74170;SDS011;62526;50.948;6.590;2023-12-14T03:17:31;30.03;;;13.77;;
74170;SDS011;62526;50.948;6.590;2023-12-14T03:19:57;23.70;;;12.27;;
74170;SDS011;62526;50.948;6.590;2023-12-14T03:22:24;27.53;;;13.10;;
74170;SDS011;62526;50.948;6.590;2023-12-14T03:24:50;29.10;;;13.23;;
74170;SDS011;62526;50.948;6.590;2023-12-14T03:27:17;34.20;;;14.27;;
74170;SDS011;62526;50.948;6.590;2023-12-14T03:29:44;32.70;;;14.87;;
74170;SDS011;62526;50.948;6.590;2023-12-14T03:32:10;32.10;;;14.77;;
74170;SDS011;62526;50.948;6.590;2023-12-14T03:34:37;31.87;;;14.63;;
74170;SDS011;62526;50.948;6.590;2023-12-14T03:37:03;36.27;;;15.77;;
74170;SDS011;62526;50.948;6.590;2023-12-14T03:39:30;40.50;;;18.33;;
74170;SDS011;62526;50.948;6.590;2023-12-14T03:41:57;31.43;;;15.60;;
74170;SDS011;62526;50.948;6.590;2023-12-14T03:44:23;39.50;;;17.43;;
74170;SDS011;62526;50.948;6.590;2023-12-14T03:46:50;36.77;;;17.87;;
74170;SDS011;62526;50.948;6.590;2023-12-14T03:49:17;33.93;;;16.20;;
74170;SDS011;62526;50.948;6.590;2023-12-14T03:51:43;37.30;;;17.23;;
74170;SDS011;62526;50.948;6.590;2023-12-14T03:54:10;29.43;;;13.10;;
74170;SDS011;62526;50.948;6.590;2023-12-14T03:56:37;38.73;;;17.10;;
74170;SDS011;62526;50.948;6.590;2023-12-14T03:59:03;36.10;;;17.10;;
74170;SDS011;62526;50.948;6.590;2023-12-14T04:01:30;32.97;;;16.90;;
74170;SDS011;62526;50.948;6.590;2023-12-14T04:03:56;35.57;;;17.30;;
74170;SDS011;62526;50.948;6.590;2023-12-14T04:06:23;35.67;;;17.40;;
74170;SDS011;62526;50.948;6.590;2023-12-14T04:08:50;43.40;;;17.63;;
74170;SDS011;62526;50.948;6.590;2023-12-14T04:11:16;41.40;;;17.97;;
74170;SDS011;62526;50.948;6.590;2023-12-14T04:13:43;37.07;;;17.93;;
74170;SDS011;62526;50.948;6.590;2023-12-14T04:16:09;38.70;;;18.47;;
74170;SDS011;62526;50.948;6.590;2023-12-14T04:18:36;42.47;;;18.20;;
74170;SDS011;62526;50.948;6.590;2023-12-14T04:21:03;36.87;;;17.77;;
74170;SDS011;62526;50.948;6.590;2023-12-14T04:23:30;35.37;;;16.97;;
74170;SDS011;62526;50.948;6.590;2023-12-14T04:25:56;40.97;;;18.37;;
74170;SDS011;62526;50.948;6.590;2023-12-14T04:28:23;39.40;;;19.33;;
74170;SDS011;62526;50.948;6.590;2023-12-14T04:30:50;41.40;;;19.27;;
74170;SDS011;62526;50.948;6.590;2023-12-14T04:33:16;39.37;;;18.43;;
74170;SDS011;62526;50.948;6.590;2023-12-14T04:35:43;36.80;;;16.50;;
74170;SDS011;62526;50.948;6.590;2023-12-14T04:38:10;36.93;;;18.20;;
74170;SDS011;62526;50.948;6.590;2023-12-14T04:40:36;37.87;;;18.27;;
74170;SDS011;62526;50.948;6.590;2023-12-14T04:43:03;28.70;;;14.80;;
74170;SDS011;62526;50.948;6.590;2023-12-14T04:45:30;34.83;;;16.53;;
74170;SDS011;62526;50.948;6.590;2023-12-14T04:47:56;34.30;;;17.33;;
74170;SDS011;62526;50.948;6.590;2023-12-14T04:50:23;37.83;;;17.87;;
74170;SDS011;62526;50.948;6.590;2023-12-14T04:52:50;33.33;;;15.53;;
74170;SDS011;62526;50.948;6.590;2023-12-14T04:55:17;39.03;;;18.63;;
74170;SDS011;62526;50.948;6.590;2023-12-14T04:57:44;35.97;;;18.00;;
74170;SDS011;62526;50.948;6.590;2023-12-14T05:00:11;37.17;;;17.20;;
74170;SDS011;62526;50.948;6.590;2023-12-14T05:02:39;40.30;;;18.60;;
74170;SDS011;62526;50.948;6.590;2023-12-14T05:05:07;42.80;;;20.13;;
74170;SDS011;62526;50.948;6.590;2023-12-14T05:07:34;43.30;;;19.47;;
74170;SDS011;62526;50.948;6.590;2023-12-14T05:10:00;40.70;;;19.70;;
74170;SDS011;62526;50.948;6.590;2023-12-14T05:12:27;36.33;;;18.73;;
74170;SDS011;62526;50.948;6.590;2023-12-14T05:14:54;44.20;;;20.07;;
74170;SDS011;62526;50.948;6.590;2023-12-14T05:17:21;45.67;;;20.83;;
74170;SDS011;62526;50.948;6.590;2023-12-14T05:19:48;38.53;;;19.97;;
74170;SDS011;62526;50.948;6.590;2023-12-14T05:22:14;43.87;;;20.13;;
74170;SDS011;62526;50.948;6.590;2023-12-14T05:24:41;42.77;;;18.40;;
74170;SDS011;62526;50.948;6.590;2023-12-14T05:27:07;38.87;;;16.90;;
74170;SDS011;62526;50.948;6.590;2023-12-14T05:29:34;40.80;;;19.60;;
74170;SDS011;62526;50.948;6.590;2023-12-14T05:32:01;42.97;;;20.10;;
74170;SDS011;62526;50.948;6.590;2023-12-14T05:34:27;41.90;;;19.23;;
74170;SDS011;62526;50.948;6.590;2023-12-14T05:36:54;39.30;;;18.03;;
74170;SDS011;62526;50.948;6.590;2023-12-14T05:39:21;42.73;;;19.63;;
74170;SDS011;62526;50.948;6.590;2023-12-14T05:41:47;38.00;;;19.13;;
74170;SDS011;62526;50.948;6.590;2023-12-14T05:44:14;44.43;;;21.23;;
74170;SDS011;62526;50.948;6.590;2023-12-14T05:46:41;41.83;;;20.03;;
74170;SDS011;62526;50.948;6.590;2023-12-14T05:49:07;40.27;;;18.03;;
74170;SDS011;62526;50.948;6.590;2023-12-14T05:51:37;33.73;;;17.50;;
74170;SDS011;62526;50.948;6.590;2023-12-14T05:54:04;40.20;;;19.37;;
74170;SDS011;62526;50.948;6.590;2023-12-14T05:56:31;40.07;;;18.23;;
74170;SDS011;62526;50.948;6.590;2023-12-14T05:58:57;39.77;;;17.43;;
74170;SDS011;62526;50.948;6.590;2023-12-14T06:01:24;37.93;;;15.83;;
74170;SDS011;62526;50.948;6.590;2023-12-14T06:03:51;33.87;;;15.87;;
74170;SDS011;62526;50.948;6.590;2023-12-14T06:06:18;31.00;;;15.67;;
74170;SDS011;62526;50.948;6.590;2023-12-14T06:08:44;31.80;;;15.90;;
74170;SDS011;62526;50.948;6.590;2023-12-14T06:11:11;28.70;;;14.93;;
74170;SDS011;62526;50.948;6.590;2023-12-14T06:13:38;30.90;;;14.93;;
74170;SDS011;62526;50.948;6.590;2023-12-14T06:16:04;36.03;;;16.17;;
74170;SDS011;62526;50.948;6.590;2023-12-14T06:18:31;34.53;;;15.03;;
74170;SDS011;62526;50.948;6.590;2023-12-14T06:20:58;29.23;;;13.70;;
74170;SDS011;62526;50.948;6.590;2023-12-14T06:23:24;38.37;;;16.03;;
74170;SDS011;62526;50.948;6.590;2023-12-14T06:25:51;30.00;;;14.90;;
74170;SDS011;62526;50.948;6.590;2023-12-14T06:28:18;34.70;;;15.50;;
74170;SDS011;62526;50.948;6.590;2023-12-14T06:30:44;34.37;;;16.43;;
74170;SDS011;62526;50.948;6.590;2023-12-14T06:33:12;31.30;;;14.90;;
74170;SDS011;62526;50.948;6.590;2023-12-14T06:35:38;30.30;;;14.17;;
74170;SDS011;62526;50.948;6.590;2023-12-14T06:38:05;30.40;;;14.93;;
74170;SDS011;62526;50.948;6.590;2023-12-14T06:40:32;31.73;;;14.67;;
74170;SDS011;62526;50.948;6.590;2023-12-14T06:42:58;32.43;;;16.00;;
74170;SDS011;62526;50.948;6.590;2023-12-14T06:45:25;31.43;;;16.13;;
74170;SDS011;62526;50.948;6.590;2023-12-14T06:47:52;23.90;;;10.20;;
74170;SDS011;62526;50.948;6.590;2023-12-14T06:50:18;32.00;;;15.77;;
74170;SDS011;62526;50.948;6.590;2023-12-14T06:52:45;10.87;;;6.13;;
74170;SDS011;62526;50.948;6.590;2023-12-14T06:55:12;27.37;;;13.60;;
74170;SDS011;62526;50.948;6.590;2023-12-14T06:57:39;29.67;;;14.83;;
74170;SDS011;62526;50.948;6.590;2023-12-14T07:00:06;30.47;;;16.20;;
74170;SDS011;62526;50.948;6.590;2023-12-14T07:02:33;27.23;;;13.67;;
74170;SDS011;62526;50.948;6.590;2023-12-14T07:05:00;24.87;;;13.40;;
74170;SDS011;62526;50.948;6.590;2023-12-14T07:07:27;30.87;;;15.80;;
74170;SDS011;62526;50.948;6.590;2023-12-14T07:09:53;32.73;;;14.17;;
74170;SDS011;62526;50.948;6.590;2023-12-14T07:12:20;30.30;;;13.80;;
74170;SDS011;62526;50.948;6.590;2023-12-14T07:14:46;28.90;;;11.97;;
74170;SDS011;62526;50.948;6.590;2023-12-14T07:17:13;24.63;;;12.33;;
74170;SDS011;62526;50.948;6.590;2023-12-14T07:19:40;30.83;;;13.03;;
74170;SDS011;62526;50.948;6.590;2023-12-14T07:22:06;29.00;;;13.50;;
74170;SDS011;62526;50.948;6.590;2023-12-14T07:24:33;29.13;;;14.43;;
74170;SDS011;62526;50.948;6.590;2023-12-14T07:26:59;27.47;;;12.57;;
74170;SDS011;62526;50.948;6.590;2023-12-14T07:29:26;25.20;;;11.87;;
74170;SDS011;62526;50.948;6.590;2023-12-14T07:31:53;30.43;;;14.37;;
74170;SDS011;62526;50.948;6.590;2023-12-14T07:34:19;31.83;;;14.50;;
74170;SDS011;62526;50.948;6.590;2023-12-14T07:36:46;29.07;;;12.33;;
74170;SDS011;62526;50.948;6.590;2023-12-14T07:39:16;30.27;;;14.37;;
74170;SDS011;62526;50.948;6.590;2023-12-14T07:42:00;31.60;;;12.40;;
74170;SDS011;62526;50.948;6.590;2023-12-14T07:44:43;33.33;;;13.20;;
74170;SDS011;62526;50.948;6.590;2023-12-14T07:47:21;28.93;;;13.30;;
74170;SDS011;62526;50.948;6.590;2023-12-14T07:49:56;29.50;;;13.67;;
74170;SDS011;62526;50.948;6.590;2023-12-14T07:52:24;27.00;;;13.37;;
74170;SDS011;62526;50.948;6.590;2023-12-14T07:54:53;33.43;;;14.57;;
74170;SDS011;62526;50.948;6.590;2023-12-14T07:57:20;26.70;;;13.07;;
74170;SDS011;62526;50.948;6.590;2023-12-14T07:59:47;35.93;;;15.37;;
74170;SDS011;62526;50.948;6.590;2023-12-14T08:02:13;33.90;;;15.57;;
74170;SDS011;62526;50.948;6.590;2023-12-14T08:04:40;33.67;;;16.60;;
74170;SDS011;62526;50.948;6.590;2023-12-14T08:07:07;35.87;;;17.47;;
74170;SDS011;62526;50.948;6.590;2023-12-14T08:09:34;32.63;;;16.30;;
74170;SDS011;62526;50.948;6.590;2023-12-14T08:12:01;34.97;;;17.47;;
74170;SDS011;62526;50.948;6.590;2023-12-14T08:14:27;29.53;;;14.93;;
74170;SDS011;62526;50.948;6.590;2023-12-14T08:16:55;32.07;;;15.00;;
74170;SDS011;62526;50.948;6.590;2023-12-14T08:19:22;28.53;;;15.23;;
74170;SDS011;62526;50.948;6.590;2023-12-14T08:21:49;30.07;;;14.30;;
74170;SDS011;62526;50.948;6.590;2023-12-14T08:24:16;39.93;;;17.63;;
74170;SDS011;62526;50.948;6.590;2023-12-14T08:26:43;29.30;;;16.80;;
74170;SDS011;62526;50.948;6.590;2023-12-14T08:29:09;32.50;;;16.90;;
74170;SDS011;62526;50.948;6.590;2023-12-14T08:31:36;33.53;;;15.50;;
74170;SDS011;62526;50.948;6.590;2023-12-14T08:34:03;30.97;;;16.40;;
74170;SDS011;62526;50.948;6.590;2023-12-14T08:36:30;34.30;;;15.80;;
74170;SDS011;62526;50.948;6.590;2023-12-14T08:38:57;26.50;;;12.10;;
74170;SDS011;62526;50.948;6.590;2023-12-14T08:41:24;31.60;;;16.80;;
74170;SDS011;62526;50.948;6.590;2023-12-14T08:43:51;37.27;;;16.57;;
74170;SDS011;62526;50.948;6.590;2023-12-14T08:46:17;30.40;;;14.03;;
74170;SDS011;62526;50.948;6.590;2023-12-14T08:48:44;33.80;;;14.03;;
74170;SDS011;62526;50.948;6.590;2023-12-14T08:51:11;29.53;;;14.73;;
74170;SDS011;62526;50.948;6.590;2023-12-14T08:53:37;33.53;;;15.43;;
74170;SDS011;62526;50.948;6.590;2023-12-14T08:56:04;32.33;;;16.03;;
74170;SDS011;62526;50.948;6.590;2023-12-14T08:58:31;32.80;;;15.43;;
74170;SDS011;62526;50.948;6.590;2023-12-14T09:00:58;35.57;;;16.90;;
74170;SDS011;62526;50.948;6.590;2023-12-14T09:03:24;27.87;;;15.13;;
74170;SDS011;62526;50.948;6.590;2023-12-14T09:05:51;29.00;;;14.93;;
74170;SDS011;62526;50.948;6.590;2023-12-14T09:08:18;38.33;;;17.17;;
74170;SDS011;62526;50.948;6.590;2023-12-14T09:10:44;30.00;;;16.73;;
74170;SDS011;62526;50.948;6.590;2023-12-14T09:13:11;17.47;;;9.20;;
74170;SDS011;62526;50.948;6.590;2023-12-14T09:15:37;22.30;;;12.30;;
74170;SDS011;62526;50.948;6.590;2023-12-14T09:18:04;32.27;;;16.97;;
74170;SDS011;62526;50.948;6.590;2023-12-14T09:20:31;30.80;;;15.40;;
74170;SDS011;62526;50.948;6.590;2023-12-14T09:22:57;24.23;;;13.33;;
74170;SDS011;62526;50.948;6.590;2023-12-14T09:25:24;28.23;;;13.53;;
74170;SDS011;62526;50.948;6.590;2023-12-14T09:27:51;24.10;;;14.43;;
74170;SDS011;62526;50.948;6.590;2023-12-14T09:30:17;39.67;;;16.97;;
74170;SDS011;62526;50.948;6.590;2023-12-14T09:32:44;29.80;;;15.50;;
74170;SDS011;62526;50.948;6.590;2023-12-14T09:35:10;26.87;;;15.83;;
74170;SDS011;62526;50.948;6.590;2023-12-14T09:37:37;33.23;;;15.70;;
74170;SDS011;62526;50.948;6.590;2023-12-14T09:40:04;29.40;;;16.13;;
74170;SDS011;62526;50.948;6.590;2023-12-14T09:42:35;30.27;;;15.10;;
74170;SDS011;62526;50.948;6.590;2023-12-14T09:44:58;28.60;;;15.73;;
74170;SDS011;62526;50.948;6.590;2023-12-14T09:47:25;31.07;;;14.93;;
74170;SDS011;62526;50.948;6.590;2023-12-14T09:49:52;30.00;;;15.53;;
74170;SDS011;62526;50.948;6.590;2023-12-14T09:52:19;30.87;;;16.77;;
74170;SDS011;62526;50.948;6.590;2023-12-14T09:54:45;25.27;;;15.33;;
74170;SDS011;62526;50.948;6.590;2023-12-14T09:57:12;27.60;;;15.63;;
74170;SDS011;62526;50.948;6.590;2023-12-14T09:59:38;28.37;;;15.67;;
74170;SDS011;62526;50.948;6.590;2023-12-14T10:02:09;27.00;;;14.43;;
74170;SDS011;62526;50.948;6.590;2023-12-14T10:04:36;29.03;;;15.83;;
74170;SDS011;62526;50.948;6.590;2023-12-14T10:07:03;27.27;;;15.27;;
74170;SDS011;62526;50.948;6.590;2023-12-14T10:09:29;30.53;;;15.47;;
74170;SDS011;62526;50.948;6.590;2023-12-14T10:12:02;23.73;;;12.73;;
74170;SDS011;62526;50.948;6.590;2023-12-14T10:14:31;23.50;;;13.33;;
74170;SDS011;62526;50.948;6.590;2023-12-14T10:16:58;19.33;;;9.87;;
74170;SDS011;62526;50.948;6.590;2023-12-14T10:19:25;11.23;;;5.97;;
74170;SDS011;62526;50.948;6.590;2023-12-14T10:21:52;19.57;;;11.77;;
74170;SDS011;62526;50.948;6.590;2023-12-14T10:24:18;23.40;;;13.33;;
74170;SDS011;62526;50.948;6.590;2023-12-14T10:26:46;22.27;;;13.07;;
74170;SDS011;62526;50.948;6.590;2023-12-14T10:29:12;21.60;;;12.43;;
74170;SDS011;62526;50.948;6.590;2023-12-14T10:31:39;30.57;;;19.30;;
74170;SDS011;62526;50.948;6.590;2023-12-14T10:34:06;22.23;;;12.73;;
74170;SDS011;62526;50.948;6.590;2023-12-14T10:36:32;22.03;;;13.00;;
74170;SDS011;62526;50.948;6.590;2023-12-14T10:38:59;22.60;;;14.27;;
74170;SDS011;62526;50.948;6.590;2023-12-14T10:41:26;20.70;;;11.07;;
74170;SDS011;62526;50.948;6.590;2023-12-14T10:43:53;20.63;;;12.63;;
74170;SDS011;62526;50.948;6.590;2023-12-14T10:46:20;20.80;;;13.00;;
74170;SDS011;62526;50.948;6.590;2023-12-14T10:48:47;16.30;;;9.27;;
74170;SDS011;62526;50.948;6.590;2023-12-14T10:51:14;23.63;;;11.40;;
74170;SDS011;62526;50.948;6.590;2023-12-14T10:53:43;17.23;;;10.33;;
74170;SDS011;62526;50.948;6.590;2023-12-14T10:56:10;20.63;;;13.00;;
74170;SDS011;62526;50.948;6.590;2023-12-14T11:01:23;16.63;;;9.63;;
74170;SDS011;62526;50.948;6.590;2023-12-14T11:03:53;25.33;;;15.33;;
74170;SDS011;62526;50.948;6.590;2023-12-14T11:09:06;28.60;;;15.10;;
74170;SDS011;62526;50.948;6.590;2023-12-14T11:11:41;22.13;;;13.47;;
74170;SDS011;62526;50.948;6.590;2023-12-14T11:14:07;25.83;;;14.30;;
74170;SDS011;62526;50.948;6.590;2023-12-14T11:16:36;25.63;;;14.27;;
74170;SDS011;62526;50.948;6.590;2023-12-14T11:21:41;22.23;;;12.77;;
74170;SDS011;62526;50.948;6.590;2023-12-14T11:24:08;22.67;;;12.80;;
74170;SDS011;62526;50.948;6.590;2023-12-14T11:26:35;26.50;;;15.63;;
74170;SDS011;62526;50.948;6.590;2023-12-14T11:29:02;24.27;;;14.73;;
74170;SDS011;62526;50.948;6.590;2023-12-14T11:31:28;26.33;;;13.83;;
74170;SDS011;62526;50.948;6.590;2023-12-14T11:33:55;25.50;;;14.00;;
74170;SDS011;62526;50.948;6.590;2023-12-14T11:36:22;26.93;;;15.83;;
74170;SDS011;62526;50.948;6.590;2023-12-14T11:38:48;33.23;;;15.53;;
74170;SDS011;62526;50.948;6.590;2023-12-14T11:41:15;24.37;;;14.67;;
74170;SDS011;62526;50.948;6.590;2023-12-14T11:43:42;26.00;;;14.63;;
74170;SDS011;62526;50.948;6.590;2023-12-14T11:46:09;26.13;;;14.47;;
74170;SDS011;62526;50.948;6.590;2023-12-14T11:48:35;30.97;;;15.63;;
74170;SDS011;62526;50.948;6.590;2023-12-14T11:51:02;27.50;;;15.03;;
74170;SDS011;62526;50.948;6.590;2023-12-14T11:53:29;24.37;;;14.80;;
74170;SDS011;62526;50.948;6.590;2023-12-14T11:55:55;33.80;;;20.10;;
74170;SDS011;62526;50.948;6.590;2023-12-14T11:58:22;34.07;;;22.73;;
74170;SDS011;62526;50.948;6.590;2023-12-14T12:00:49;27.43;;;15.20;;
74170;SDS011;62526;50.948;6.590;2023-12-14T12:03:17;27.27;;;16.00;;
74170;SDS011;62526;50.948;6.590;2023-12-14T12:05:43;34.33;;;18.07;;
74170;SDS011;62526;50.948;6.590;2023-12-14T12:08:10;30.17;;;18.07;;
74170;SDS011;62526;50.948;6.590;2023-12-14T12:10:37;26.70;;;15.63;;
74170;SDS011;62526;50.948;6.590;2023-12-14T12:13:03;23.13;;;12.83;;
74170;SDS011;62526;50.948;6.590;2023-12-14T12:15:31;27.27;;;13.90;;
74170;SDS011;62526;50.948;6.590;2023-12-14T12:17:58;21.53;;;11.47;;
74170;SDS011;62526;50.948;6.590;2023-12-14T12:20:24;19.17;;;12.10;;
74170;SDS011;62526;50.948;6.590;2023-12-14T12:22:51;25.27;;;14.70;;
74170;SDS011;62526;50.948;6.590;2023-12-14T12:25:18;26.13;;;12.97;;
74170;SDS011;62526;50.948;6.590;2023-12-14T12:27:44;23.43;;;13.27;;
74170;SDS011;62526;50.948;6.590;2023-12-14T12:30:11;23.43;;;14.20;;
74170;SDS011;62526;50.948;6.590;2023-12-14T12:32:38;23.60;;;13.40;;
74170;SDS011;62526;50.948;6.590;2023-12-14T12:35:04;18.90;;;10.93;;
74170;SDS011;62526;50.948;6.590;2023-12-14T12:37:32;22.57;;;11.53;;
74170;SDS011;62526;50.948;6.590;2023-12-14T12:39:58;19.30;;;11.40;;
74170;SDS011;62526;50.948;6.590;2023-12-14T12:42:25;17.20;;;10.83;;
74170;SDS011;62526;50.948;6.590;2023-12-14T12:44:52;19.97;;;11.50;;
74170;SDS011;62526;50.948;6.590;2023-12-14T12:47:18;19.33;;;11.33;;
74170;SDS011;62526;50.948;6.590;2023-12-14T12:49:46;18.53;;;10.17;;
74170;SDS011;62526;50.948;6.590;2023-12-14T12:52:12;16.47;;;9.60;;
74170;SDS011;62526;50.948;6.590;2023-12-14T12:54:40;15.17;;;9.37;;
74170;SDS011;62526;50.948;6.590;2023-12-14T12:57:07;15.20;;;9.57;;
74170;SDS011;62526;50.948;6.590;2023-12-14T12:59:33;13.57;;;8.27;;
74170;SDS011;62526;50.948;6.590;2023-12-14T13:02:00;14.10;;;8.43;;
74170;SDS011;62526;50.948;6.590;2023-12-14T13:04:27;16.43;;;9.20;;
74170;SDS011;62526;50.948;6.590;2023-12-14T13:06:54;16.63;;;9.03;;
74170;SDS011;62526;50.948;6.590;2023-12-14T13:09:20;14.43;;;8.43;;
74170;SDS011;62526;50.948;6.590;2023-12-14T13:11:47;17.43;;;9.83;;
74170;SDS011;62526;50.948;6.590;2023-12-14T13:14:13;17.03;;;10.00;;
74170;SDS011;62526;50.948;6.590;2023-12-14T13:16:40;10.47;;;6.43;;
74170;SDS011;62526;50.948;6.590;2023-12-14T13:19:07;18.30;;;8.73;;
74170;SDS011;62526;50.948;6.590;2023-12-14T13:21:33;21.37;;;10.23;;
74170;SDS011;62526;50.948;6.590;2023-12-14T13:24:00;14.63;;;8.27;;
74170;SDS011;62526;50.948;6.590;2023-12-14T13:26:27;12.77;;;8.03;;
74170;SDS011;62526;50.948;6.590;2023-12-14T13:28:53;15.20;;;9.23;;
74170;SDS011;62526;50.948;6.590;2023-12-14T13:31:20;16.23;;;9.00;;
74170;SDS011;62526;50.948;6.590;2023-12-14T13:33:47;15.40;;;8.97;;
74170;SDS011;62526;50.948;6.590;2023-12-14T13:36:14;12.93;;;7.80;;
74170;SDS011;62526;50.948;6.590;2023-12-14T13:38:41;15.43;;;9.20;;
74170;SDS011;62526;50.948;6.590;2023-12-14T13:41:08;11.50;;;7.17;;
74170;SDS011;62526;50.948;6.590;2023-12-14T13:43:35;16.50;;;8.00;;
74170;SDS011;62526;50.948;6.590;2023-12-14T13:46:02;14.57;;;9.30;;
74170;SDS011;62526;50.948;6.590;2023-12-14T13:48:28;16.03;;;7.93;;
74170;SDS011;62526;50.948;6.590;2023-12-14T13:50:55;15.53;;;8.47;;
74170;SDS011;62526;50.948;6.590;2023-12-14T13:53:22;18.17;;;9.63;;
74170;SDS011;62526;50.948;6.590;2023-12-14T13:55:50;14.73;;;8.83;;
74170;SDS011;62526;50.948;6.590;2023-12-14T13:58:15;15.60;;;8.57;;
74170;SDS011;62526;50.948;6.590;2023-12-14T14:00:42;17.70;;;8.60;;
74170;SDS011;62526;50.948;6.590;2023-12-14T14:03:08;18.53;;;9.17;;
74170;SDS011;62526;50.948;6.590;2023-12-14T14:05:35;15.63;;;8.53;;
74170;SDS011;62526;50.948;6.590;2023-12-14T14:08:02;16.30;;;9.50;;
74170;SDS011;62526;50.948;6.590;2023-12-14T14:10:28;17.17;;;9.77;;
74170;SDS011;62526;50.948;6.590;2023-12-14T14:12:55;15.87;;;9.20;;
74170;SDS011;62526;50.948;6.590;2023-12-14T14:15:21;17.57;;;9.23;;
74170;SDS011;62526;50.948;6.590;2023-12-14T14:17:48;15.33;;;8.90;;
74170;SDS011;62526;50.948;6.590;2023-12-14T14:20:15;18.80;;;9.00;;
74170;SDS011;62526;50.948;6.590;2023-12-14T14:22:41;15.20;;;8.83;;
74170;SDS011;62526;50.948;6.590;2023-12-14T14:25:09;18.20;;;9.33;;
74170;SDS011;62526;50.948;6.590;2023-12-14T14:27:35;16.13;;;8.30;;
74170;SDS011;62526;50.948;6.590;2023-12-14T14:30:02;17.47;;;10.33;;
74170;SDS011;62526;50.948;6.590;2023-12-14T14:32:29;13.30;;;7.77;;